• Join FlightAware (Why Join?)
  • Login
  • US Flag 
01:26AM EDT


 

Airport Tracker/Info


-or-


 

Live Flight TrackerFlight Track Log ✈ N830QS ✈ 19-Jan-2014 ✈ KMSY - KFTW

Flight Track Log - Related Links

Times and Time Zones

All times are in EST time to prevent confusion due to time zone crossing. See the N830QS flight status page for this flight to view local times or setup timezone preferences in your user account.

Time Position Orientation Groundspeed Altitude Reporting Facility
EST Latitude Longitude Course Direction KTS MPH feet Rate Location/Type
07:05PM 29.9864 -90.2511 196° South 170 196 400  Level Houston Center
07:05PM 29.9603 -90.2600 196° South 177 204 2,300 3,480 Climbing Houston Center
07:06PM 29.9481 -90.3214 257° West 264 304 6,300 3,720 Climbing Houston Center
07:07PM 30.0064 -90.3681 325° Northwest 257 296 10,000 3,540 Climbing Houston Center
07:08PM 30.0683 -90.4197 324° Northwest 269 310 13,700 3,420 Climbing Houston Center
07:09PM 30.1442 -90.4850 323° Northwest 279 321 17,100 2,940 Climbing Houston Center
07:10PM 30.2106 -90.5453 322° Northwest 295 339 19,800 2,520 Climbing Houston Center
07:11PM 30.2808 -90.6067 323° Northwest 307 353 22,400 1,920 Climbing Houston Center
07:12PM 30.3567 -90.6728 323° Northwest 324 373 23,800 1,500 Climbing Houston Center
07:13PM 30.4258 -90.7594 313° West 365 420 25,500 1,560 Climbing Houston Center
07:14PM 30.4742 -90.8647 298° West 370 426 27,000 1,380 Climbing Houston Center
07:16PM 30.5228 -90.9742 297° West 377 434 28,400 1,980 Climbing Houston Center
07:17PM 30.5808 -91.1025 298° West 376 433 31,200 1,740 Climbing Houston Center
07:18PM 30.6267 -91.2089 297° West 370 426 32,000 360 Climbing Houston Center
07:19PM 30.6767 -91.3250 297° West 392 451 32,000  Level Houston Center
07:20PM 30.7289 -91.4419 297° West 407 468 32,000  Level Houston Center
07:21PM 30.7797 -91.5547 298° West 400 460 32,000  Level Houston Center
07:22PM 30.8289 -91.6675 297° West 394 453 32,000  Level Houston Center
07:23PM 30.8875 -91.8022 297° West 391 450 32,000  Level Houston Center
07:24PM 30.9347 -91.9094 297° West 378 435 32,000  Level Houston Center
07:25PM 30.9803 -92.0147 297° West 367 422 32,000  Level Houston Center
07:26PM 31.0300 -92.1286 297° West 361 415 32,000  Level Houston Center
07:27PM 31.0747 -92.2306 297° West 356 410 32,000  Level Houston Center
07:28PM 31.1189 -92.3336 297° West 356 410 32,000  Level Houston Center
07:29PM 31.1628 -92.4358 297° West 355 409 32,000  Level Houston Center
07:30PM 31.2069 -92.5394 297° West 357 411 32,000  Level Houston Center
07:31PM 31.2522 -92.6428 297° West 358 412 32,000  Level Houston Center
07:32PM 31.3056 -92.7658 297° West 357 411 32,000  Level Houston Center
07:33PM 31.3469 -92.8658 296° West 351 404 32,000  Level Houston Center
07:34PM 31.3903 -92.9692 296° West 351 404 32,000  Level Houston Center
07:35PM 31.4350 -93.0731 297° West 354 407 32,000  Level Houston Center
07:36PM 31.4781 -93.1747 296° West 353 406 32,000  Level Houston Center
07:37PM 31.5217 -93.2772 297° West 352 405 32,000  Level Houston Center
07:38PM 31.5661 -93.3842 296° West 355 409 32,000  Level Houston Center
07:39PM 31.6183 -93.5092 296° West 356 410 32,000  Level Houston Center
07:40PM 31.6622 -93.6133 296° West 357 411 32,000  Level Houston Center
07:41PM 31.7053 -93.7169 296° West 355 409 32,000  Level Houston Center
07:42PM 31.7481 -93.8219 296° West 356 410 32,000  Level Houston Center
07:43PM 31.7708 -93.9350 283° West 358 412 32,000  Level Houston Center
07:44PM 31.7950 -94.0461 284° West 353 406 32,000  Level Houston Center
07:45PM 31.8178 -94.1589 283° West 354 407 32,000  Level Houston Center
07:46PM 31.8442 -94.2922 283° West 353 406 32,000  Level Houston Center
07:47PM 31.8672 -94.4033 284° West 351 404 32,000  Level Houston Center
07:49PM 31.8897 -94.5142 283° West 350 403 32,000  Level Houston Center
07:50PM 31.9114 -94.6267 283° West 352 405 32,000  Level Houston Center
07:51PM 31.9342 -94.7389 283° West 354 407 32,000  Level Houston Center
07:52PM 31.9606 -94.8731 283° West 354 407 32,000  Level Houston Center
07:53PM 31.9925 -95.0283 284° West 347 399 32,000  Level Fort Worth Center
07:54PM 32.0139 -95.1389 283° West 347 399 32,000 -240 Level Fort Worth Center
07:55PM 32.0358 -95.2486 283° West 346 398 31,600 -1,380 Descending Fort Worth Center
07:56PM 32.0553 -95.3606 282° West 348 400 29,200 -2,400 Descending Fort Worth Center
07:57PM 32.0728 -95.4797 280° West 362 417 26,700 -2,580 Descending Fort Worth Center
07:58PM 32.0925 -95.6150 280° West 367 422 23,900 -2,580 Descending Fort Worth Center
07:59PM 32.1106 -95.7281 281° West 356 410 21,400 -2,340 Descending Fort Worth Center
08:00PM 32.1269 -95.8392 280° West 346 398 19,100 -2,160 Descending Fort Worth Center
08:01PM 32.1442 -95.9475 281° West 338 389 17,000 -2,100 Descending Fort Worth Center
08:02PM 32.1603 -96.0506 280° West 323 372 14,800 -2,160 Descending Fort Worth Center
08:03PM 32.1753 -96.1506 280° West 312 359 12,600 -1,800 Descending Fort Worth Center
08:04PM 32.1972 -96.2656 283° West 302 348 11,100 -780 Descending Fort Worth Center
08:05PM 32.2281 -96.3706 289° West 321 369 11,100 -60 Level Fort Worth Center
08:06PM 32.2536 -96.4683 287° West 312 359 11,000 -780 Descending Fort Worth Center
08:07PM 32.2767 -96.5528 288° West 275 316 9,500 -1,020 Descending Fort Worth Center
08:08PM 32.3122 -96.6414 295° West 277 319 9,000 -1,020 Descending Fort Worth Center
08:10PM 32.3467 -96.7189 298° West 268 308 7,500 -1,560 Descending Fort Worth Center
08:11PM 32.3944 -96.7842 311° West 247 284 5,800 -1,560 Descending Fort Worth Center
08:12PM 32.4497 -96.8428 318° Northwest 264 304 4,300 -840 Descending Fort Worth Center
08:13PM 32.4967 -96.9119 309° West 249 287 4,100 -120 Descending Fort Worth Center
08:14PM 32.5264 -96.9758 299° West 221 254 4,100 -120 Level Fort Worth Center
08:15PM 32.5506 -97.0317 297° West 209 241 3,900 -540 Descending Fort Worth Center
08:16PM 32.5850 -97.0989 301° West 207 238 3,100 -420 Descending Fort Worth Center
08:17PM 32.6133 -97.1528 302° West 193 222 3,100  Level Fort Worth Center
08:17PM 32.6333 -97.1833 308° West 198 228 3,100 -60 Level Dallas / Fort Worth TRACON
08:19PM 32.7000 -97.2000 348° North 215 247 3,000 -60 Descending Dallas / Fort Worth TRACON
08:20PM 32.7667 -97.2333 337° Northwest 217 250 3,000  Level Dallas / Fort Worth TRACON
08:20PM 32.8167 -97.2500 344° North 221 254 3,000  Level Dallas / Fort Worth TRACON
08:21PM 32.8667 -97.2667 344° North 218 251 3,000  Level Dallas / Fort Worth TRACON
08:22PM 32.8900 -97.2872 324° Northwest 211 243 3,000 -660 Level Fort Worth Center
08:22PM 32.9000 -97.3167 292° West 141 162 2,300 -720 Descending Dallas / Fort Worth TRACON
08:23PM 32.8833 -97.3500 239° Southwest 131 151 1,900 -420 Descending Dallas / Fort Worth TRACON
08:24PM 32.8733 -97.3650 232° Southwest 111 128 1,700 -540 Descending Fort Worth Center
08:25PM 32.8461 -97.3661 182° South 98 113 1,100 -480 Descending Fort Worth Center
08:26PM 32.8194 -97.3614 172° South 99 114 800 -300 Descending Fort Worth Center